Troutville, PA

11:47 AM EDT on October 21, 2014 (GMT -0400)
Holly Terrace | Change Station
CLOSE
Current Station
Personal Weather Station
Location: Falls Creek, PA
Elevation: 1473 ft
Nearby Weather Stations

Elev 1473 ft 41.14 °N, 78.81 °W | Updated 5 seconds ago

Rain
Rain
49.6 °F
Feels Like 47 °F
N
7.0
Wind Variable Wind from SW
Gusts 7.0 mph

Today
High -- | Low -- °F
--% Chance of Precip.
Yesterday
High -- | Low -- °F
Precip. -- in
7:33 AM 6:25 PM
Waning Crescent, 5% visible
Pressure 29.86 in
Visibility 2.5 miles
Clouds Few 500 ft
Mostly Cloudy 1300 ft
Overcast 2500 ft
Windchill 47 °F
Dew Point 49 °F
Humidity 98%
Rainfall 0.15 in
Snow Depth Not available.
UV 1 out of 12
Pollen .30 out of 12
Air Quality Not available.
Flu Activity Sporadic
SPECI KDUJ 211540Z AUTO 24008KT 2 1/2SM -RA BR FEW005 BKN013 OVC025 09/09 A2986 RMK AO2 RAE04B24 P0003 T00940089

More Conditions Fewer Conditions

Pressure 29.86 in
Visibility 2.5 miles
Clouds Few 500 ft
Mostly Cloudy 1300 ft
Overcast 2500 ft
Windchill 47 °F
Dew Point 49 °F
Humidity 98%
Rainfall 0.15 in
Snow Depth Not available.
UV 1 out of 12
Pollen .30 out of 12
Air Quality Not available.
Flu Activity Sporadic
SPECI KDUJ 211540Z AUTO 24008KT 2 1/2SM -RA BR FEW005 BKN013 OVC025 09/09 A2986 RMK AO2 RAE04B24 P0003 T00940089

More Conditions Fewer Conditions

10-Day Weather Forecast

Almanac

Astronomy

Oct. 21, 2014 Rise Set
Actual Time 7:33 AM EDT 6:25 PM EDT
Civil Twilight 7:05 AM EDT 6:53 PM EDT
Nautical Twilight 6:33 AM EDT 7:25 PM EDT
Astronomical Twilight 6:01 AM EDT 7:57 PM EDT
Moon 5:14 AM EDT 5:19 PM EDT
Length of Visible Light 11h 48m
Length of Day
10h 52m
Tomorrow will be 2m 33s shorter.
Waning Crescent, 5% of the Moon is Illuminated
Today
Waning Crescent
Oct 23
New
Oct 30
First Quarter
Nov 6
Full
Nov 14
Last Quarter

Today's Extremes

State Highs State Lows

Community

WunderPhotos

Upload Photos

1,763,700 photos uploaded!

WunderBlogs® & News

Nearby

Snow Depth

Station Depth Elevation
No new snow has been reported.

Earthquake Activity

City Distance Mag. Time & Date
No recent earthquake activity has been reported nearby.
Minimum magnitude displayed is 2.5.

Coastal Water Temperatures

Place Temperature
No Stations Reporting

Nearby Weather Stations